Armada Township, Michigan
Current Conditions -  °F | °C
As of 4:58 AM on Wednesday 22 Oct 2014 (Local Time) from KMTC Reporting Station
Overcast Overcast  
Wind Chill:   Ceiling: 1900
Heat Index:   Visibility: 10mi
Dew Point:   Wind: 10mph
Humidity: 83%   Direction: 360°N
Pressure: 30.21"   Gusts: NA
Location:  42.8463°N, 82.9201°W
Report Text: KMTC 220858Z AUTO 36009KT 10SM OVC019 08/05 A3021 RMK AO2 SLP237 T00760048 52008 $
Loading
Personal Weather Stations






























Interactive Weather Map
Tropical Storm Tracking
New forecast layout! Learn more

10-Day Weather Forecast

Advertisements
Track Severe Weather on mobile